Monday, January 22, 2018, 8:59 AM EST
Back to Local

KMGJ, Montgomery Orange Co Airport

Location: Montgomery, NY, United States Lat: 41.517
Local Time: 8:59 AM EST (13:59 GMT) Lon: -74.267
Time Zone: US/Eastern Elev: 354 ft

Show me the last for .
Show Decoded

2018-01-22 07:54 METAR KMGJ 221254Z AUTO 00000KT 3/4SM BR OVC015 02/01 A3016 RMK AO2 SLP215
                 T00170011 =
2018-01-22 07:29 METAR KMGJ 221229Z AUTO 00000KT 1 3/4SM BR OVC016 02/01 A3015 RMK AO2 T00170011
                 =
2018-01-22 07:15 METAR KMGJ 221215Z AUTO 00000KT 2SM BR OVC016 02/01 A3015 RMK AO2 T00170011 =
2018-01-22 06:54 METAR KMGJ 221154Z AUTO 00000KT 1 1/2SM BR OVC017 01/01 A3014 RMK AO2
                 RAE1057UPB1055E1056 SLP211 P0000 60001 70002 T00110006 10017 20011 53010 =
2018-01-22 05:54 METAR KMGJ 221054Z AUTO 00000KT 1 1/2SM -RA BR OVC017 01/01 A3012 RMK AO2 RAB40
                 SLP203 P0000 T00110006 =
2018-01-22 05:35 METAR KMGJ 221035Z AUTO 00000KT 1SM BR OVC018 01/01 A3011 RMK AO2 T00110006 =
2018-01-22 04:54 METAR KMGJ 220954Z AUTO 00000KT 1 1/4SM BR BKN019 OVC027 02/01 A3011 RMK AO2
                 RAE33UPB0856E0857 SLP199 P0001 T00170011 =
2018-01-22 04:43 METAR KMGJ 220943Z AUTO 00000KT 1SM BR BKN019 OVC027 02/01 A3011 RMK AO2
                 RAE33UPB0856E0857 P0001 T00170011 =
2018-01-22 04:33 METAR KMGJ 220933Z AUTO 00000KT 1 1/4SM BR OVC019 01/01 A3011 RMK AO2
                 RAE33UPB0856E0857 P0001 T00110006 =
2018-01-22 04:23 METAR KMGJ 220923Z AUTO 00000KT 1SM -RA BR OVC019 01/01 A3011 RMK AO2
                 UPB0856E0857 P0001 T00110011 =
2018-01-22 04:16 METAR KMGJ 220916Z AUTO 00000KT 1 1/4SM -RA BR OVC020 01/01 A3011 RMK AO2
                 UPB0856E0857 P0000 T00110011 =
2018-01-22 04:07 METAR KMGJ 220907Z AUTO 00000KT 1SM -RA BR BKN020 OVC034 01/01 A3012 RMK AO2
                 UPB0856E0857 P0000 T00110011 =
2018-01-22 03:54 METAR KMGJ 220854Z AUTO 00000KT 1 3/4SM -RA BR BKN021 OVC034 02/01 A3011 RMK AO2
                 RAB44 SLP199 P0000 60000 T00170011 56004 =
2018-01-22 03:52 METAR KMGJ 220852Z AUTO 00000KT 1 1/2SM -RA BR BKN021 OVC036 02/01 A3011 RMK AO2
                 RAB44 P0000 =
2018-01-22 03:42 METAR KMGJ 220842Z AUTO 02003KT 1SM BR OVC021 02/01 A3011 RMK AO2 T00170006 =
2018-01-22 03:01 METAR KMGJ 220801Z AUTO 00000KT 1 1/2SM BR OVC023 01/01 A3012 RMK AO2 T00110006
                 =
2018-01-22 02:54 METAR KMGJ 220754Z AUTO 35003KT 2SM BR OVC024 01/01 A3012 RMK AO2 RAB16E48
                 SLP203 P0000 T00110006 =
2018-01-22 02:15 METAR KMGJ 220715Z AUTO 00000KT 1 1/4SM BR OVC026 01/01 A3012 RMK AO2 T00110011
                 =
2018-01-22 02:07 METAR KMGJ 220707Z AUTO 00000KT 1SM BR OVC026 02/01 A3013 RMK AO2 T00170011 =
2018-01-22 01:54 METAR KMGJ 220654Z AUTO 00000KT 1 1/2SM BR OVC028 02/01 A3013 RMK AO2
                 RAB05E28B36E54UPB15E18 SLP204 P0000 T00170011 =
2018-01-22 01:45 METAR KMGJ 220645Z AUTO 00000KT 2SM -RA BR OVC029 02/01 A3013 RMK AO2
                 RAB05E28B36UPB15E18 P0000 T00170011 =
2018-01-22 01:30 METAR KMGJ 220630Z AUTO 00000KT 2 1/2SM BR OVC030 02/01 A3012 RMK AO2
                 RAB05E28UPB15E18 P0000 T00170011 =
2018-01-22 00:54 METAR KMGJ 220554Z AUTO 00000KT 3SM BR OVC033 01/01 A3013 RMK AO2
                 UPB0455E0457RAB0457E30 SLP204 P0000 60001 T00110006 10028 20011 58008 =
2018-01-21 23:54 METAR KMGJ 220454Z AUTO 00000KT 4SM BR OVC031 01/01 A3014 RMK AO2 RAE50 SLP211
                 P0001 T00110006 400831050 =
2018-01-21 23:42 METAR KMGJ 220442Z AUTO 00000KT 6SM -RA BR OVC030 01/01 A3014 RMK AO2 P0001
                 T00110006 =
2018-01-21 22:54 METAR KMGJ 220354Z AUTO 00000KT 5SM -RA BR OVC025 02/00 A3015 RMK AO2 RAB10
                 SLP214 P0000 T00170000 =
2018-01-21 21:54 METAR KMGJ 220254Z AUTO 00000KT 10SM OVC026 02/00 A3015 RMK AO2 SLP213 T00220000
                 50003 =
2018-01-21 20:54 METAR KMGJ 220154Z AUTO 00000KT 9SM OVC029 02/M01 A3015 RMK AO2 SLP213 T00171006
                 =
2018-01-21 19:54 METAR KMGJ 220054Z AUTO 00000KT 10SM OVC027 02/M01 A3014 RMK AO2 SLP211
                 T00221006 =
2018-01-21 19:10 METAR KMGJ 220010Z AUTO 00000KT 10SM OVC029 02/M01 A3014 RMK AO2 T00221006 =
2018-01-21 18:54 METAR KMGJ 212354Z AUTO 00000KT 10SM OVC031 02/M01 A3014 RMK AO2 SLP210
                 T00221006 10083 20022 51012 =
2018-01-21 17:54 METAR KMGJ 212254Z AUTO 00000KT 10SM SCT043 OVC050 03/M01 A3013 RMK AO2 SLP207
                 T00281011 =
2018-01-21 16:54 METAR KMGJ 212154Z AUTO 21005KT 10SM CLR 04/M01 A3012 RMK AO2 SLP204 T00441011 =
2018-01-21 15:54 METAR KMGJ 212054Z AUTO 12004KT 10SM BKN060 07/M01 A3010 RMK AO2 SLP198
                 T00671011 55006 =
2018-01-21 14:54 METAR KMGJ 211954Z AUTO 16003KT 10SM CLR 08/M01 A3010 RMK AO2 SLP196 T00781006 =
2018-01-21 13:54 METAR KMGJ 211854Z AUTO 08003KT 10SM CLR 08/M01 A3011 RMK AO2 SLP199 T00781011 =
2018-01-21 12:54 METAR KMGJ 211754Z AUTO 00000KT 10SM CLR 07/M02 A3012 RMK AO2 SLP204 T00721017
                 10078 21022 58012 =
2018-01-21 11:54 METAR KMGJ 211654Z AUTO 12003KT 10SM CLR 06/M02 A3014 RMK AO2 SLP209 T00611022 =
2018-01-21 10:54 METAR KMGJ 211554Z AUTO 06004KT 10SM CLR 04/M02 A3017 RMK AO2 SLP219 T00441017 =
2018-01-21 09:54 METAR KMGJ 211454Z AUTO 14005KT 10SM CLR 02/M02 A3016 RMK AO2 SLP217 T00221022
                 51019 =

Support USWX by starting your Amazon purchase here.